Terminal Aerodrome Forecast
Issued by NWS Pueblo, CO

Home | Current Version | Previous Version | Text Only | Print | Product List | Glossary On
Versions: 1 2 3 4 5 6 7 8 9 10 11 12 13 14 15 16 17 18 19 20 21 22 23 24 25 26 27 28 29 30 31 32 33 34 35 36 37 38 39 40 41 42 43 44 45 46 47 48 49 50
000
FTUS45 KPUB 211722
TAFCOS
TAF
KCOS 211722Z 2118/2218 02017KT P6SM VCSH SCT030 OVC080
      TEMPO 2118/2119 -SHRA BKN050
     FM212100 14008KT P6SM BKN080
     FM220300 VRB06KT P6SM SCT080 SCT200
     FM221300 35007KT P6SM SCT200=

USA.gov is the U.S. government's official web portal to all federal, state and local government web resources and services.